sensor_id;sensor_type;location;lat;lon;timestamp;P1;durP1;ratioP1;P2;durP2;ratioP2
422;SDS011;198;48.752;9.180;2023-08-20T00:02:24;8.63;;;5.90;;
422;SDS011;198;48.752;9.180;2023-08-20T00:04:52;9.63;;;6.80;;
422;SDS011;198;48.752;9.180;2023-08-20T00:07:20;9.53;;;6.70;;
422;SDS011;198;48.752;9.180;2023-08-20T00:09:46;9.47;;;6.30;;
422;SDS011;198;48.752;9.180;2023-08-20T00:14:52;9.63;;;6.07;;
422;SDS011;198;48.752;9.180;2023-08-20T00:17:21;17.73;;;7.70;;
422;SDS011;198;48.752;9.180;2023-08-20T00:19:49;9.00;;;6.40;;
422;SDS011;198;48.752;9.180;2023-08-20T00:22:15;9.37;;;5.77;;
422;SDS011;198;48.752;9.180;2023-08-20T00:24:42;9.53;;;6.63;;
422;SDS011;198;48.752;9.180;2023-08-20T00:27:07;12.97;;;6.27;;
422;SDS011;198;48.752;9.180;2023-08-20T00:29:33;8.70;;;6.43;;
422;SDS011;198;48.752;9.180;2023-08-20T00:31:59;8.47;;;5.93;;
422;SDS011;198;48.752;9.180;2023-08-20T00:34:24;16.17;;;8.10;;
422;SDS011;198;48.752;9.180;2023-08-20T00:36:50;9.30;;;5.50;;
422;SDS011;198;48.752;9.180;2023-08-20T00:39:15;12.53;;;6.40;;
422;SDS011;198;48.752;9.180;2023-08-20T00:41:41;15.63;;;6.30;;
422;SDS011;198;48.752;9.180;2023-08-20T00:44:06;17.23;;;6.67;;
422;SDS011;198;48.752;9.180;2023-08-20T00:46:32;21.93;;;7.17;;
422;SDS011;198;48.752;9.180;2023-08-20T00:48:57;9.97;;;6.90;;
422;SDS011;198;48.752;9.180;2023-08-20T00:51:23;11.93;;;7.07;;
422;SDS011;198;48.752;9.180;2023-08-20T00:53:50;8.60;;;6.30;;
422;SDS011;198;48.752;9.180;2023-08-20T00:56:16;12.07;;;7.33;;
422;SDS011;198;48.752;9.180;2023-08-20T00:58:41;16.87;;;6.60;;
422;SDS011;198;48.752;9.180;2023-08-20T01:01:07;11.33;;;6.70;;
422;SDS011;198;48.752;9.180;2023-08-20T01:03:33;9.47;;;5.93;;
422;SDS011;198;48.752;9.180;2023-08-20T01:06:02;8.43;;;6.43;;
422;SDS011;198;48.752;9.180;2023-08-20T01:08:41;9.17;;;6.03;;
422;SDS011;198;48.752;9.180;2023-08-20T01:11:12;9.70;;;6.63;;
422;SDS011;198;48.752;9.180;2023-08-20T01:13:42;9.70;;;6.07;;
422;SDS011;198;48.752;9.180;2023-08-20T01:16:08;10.17;;;7.27;;
422;SDS011;198;48.752;9.180;2023-08-20T01:18:33;9.40;;;6.27;;
422;SDS011;198;48.752;9.180;2023-08-20T01:21:01;10.60;;;7.40;;
422;SDS011;198;48.752;9.180;2023-08-20T01:26:35;14.37;;;7.10;;
422;SDS011;198;48.752;9.180;2023-08-20T01:29:03;12.20;;;6.83;;
422;SDS011;198;48.752;9.180;2023-08-20T01:31:30;12.20;;;7.30;;
422;SDS011;198;48.752;9.180;2023-08-20T01:33:57;16.17;;;7.60;;
422;SDS011;198;48.752;9.180;2023-08-20T01:36:23;9.83;;;7.10;;
422;SDS011;198;48.752;9.180;2023-08-20T01:38:48;9.03;;;6.00;;
422;SDS011;198;48.752;9.180;2023-08-20T01:41:14;17.27;;;6.80;;
422;SDS011;198;48.752;9.180;2023-08-20T01:43:39;8.33;;;6.57;;
422;SDS011;198;48.752;9.180;2023-08-20T01:46:05;14.57;;;7.70;;
422;SDS011;198;48.752;9.180;2023-08-20T01:48:30;10.80;;;7.00;;
422;SDS011;198;48.752;9.180;2023-08-20T01:50:56;12.60;;;6.20;;
422;SDS011;198;48.752;9.180;2023-08-20T01:53:22;11.33;;;6.70;;
422;SDS011;198;48.752;9.180;2023-08-20T01:55:47;15.20;;;7.20;;
422;SDS011;198;48.752;9.180;2023-08-20T01:58:13;14.53;;;7.73;;
422;SDS011;198;48.752;9.180;2023-08-20T02:00:38;14.53;;;7.70;;
422;SDS011;198;48.752;9.180;2023-08-20T02:03:04;20.50;;;8.30;;
422;SDS011;198;48.752;9.180;2023-08-20T02:05:29;11.33;;;7.77;;
422;SDS011;198;48.752;9.180;2023-08-20T02:07:55;12.60;;;7.13;;
422;SDS011;198;48.752;9.180;2023-08-20T02:10:20;11.50;;;7.67;;
422;SDS011;198;48.752;9.180;2023-08-20T02:12:46;14.23;;;7.43;;
422;SDS011;198;48.752;9.180;2023-08-20T02:15:11;10.57;;;7.80;;
422;SDS011;198;48.752;9.180;2023-08-20T02:17:37;11.50;;;7.07;;
422;SDS011;198;48.752;9.180;2023-08-20T02:20:03;17.67;;;6.73;;
422;SDS011;198;48.752;9.180;2023-08-20T02:22:29;16.03;;;8.10;;
422;SDS011;198;48.752;9.180;2023-08-20T02:24:55;16.50;;;8.07;;
422;SDS011;198;48.752;9.180;2023-08-20T02:27:21;15.10;;;7.17;;
422;SDS011;198;48.752;9.180;2023-08-20T02:29:46;12.60;;;7.07;;
422;SDS011;198;48.752;9.180;2023-08-20T02:32:12;16.73;;;7.20;;
422;SDS011;198;48.752;9.180;2023-08-20T02:34:37;12.70;;;7.47;;
422;SDS011;198;48.752;9.180;2023-08-20T02:37:03;11.43;;;6.80;;
422;SDS011;198;48.752;9.180;2023-08-20T02:39:28;11.90;;;7.50;;
422;SDS011;198;48.752;9.180;2023-08-20T02:41:54;11.57;;;7.57;;
422;SDS011;198;48.752;9.180;2023-08-20T02:44:19;20.53;;;7.83;;
422;SDS011;198;48.752;9.180;2023-08-20T02:46:45;12.20;;;6.93;;
422;SDS011;198;48.752;9.180;2023-08-20T02:49:10;14.20;;;8.60;;
422;SDS011;198;48.752;9.180;2023-08-20T02:51:37;11.30;;;7.13;;
422;SDS011;198;48.752;9.180;2023-08-20T02:54:02;13.40;;;7.20;;
422;SDS011;198;48.752;9.180;2023-08-20T02:56:28;14.80;;;7.80;;
422;SDS011;198;48.752;9.180;2023-08-20T02:58:53;13.53;;;7.97;;
422;SDS011;198;48.752;9.180;2023-08-20T03:01:22;14.53;;;8.70;;
422;SDS011;198;48.752;9.180;2023-08-20T03:03:49;15.17;;;8.17;;
422;SDS011;198;48.752;9.180;2023-08-20T03:06:14;17.50;;;7.87;;
422;SDS011;198;48.752;9.180;2023-08-20T03:08:40;15.20;;;8.60;;
422;SDS011;198;48.752;9.180;2023-08-20T03:11:05;9.27;;;7.37;;
422;SDS011;198;48.752;9.180;2023-08-20T03:13:31;14.63;;;7.03;;
422;SDS011;198;48.752;9.180;2023-08-20T03:15:56;24.47;;;9.13;;
422;SDS011;198;48.752;9.180;2023-08-20T03:18:22;13.87;;;7.07;;
422;SDS011;198;48.752;9.180;2023-08-20T03:20:47;15.07;;;7.87;;
422;SDS011;198;48.752;9.180;2023-08-20T03:23:13;8.60;;;6.57;;
422;SDS011;198;48.752;9.180;2023-08-20T03:25:38;9.40;;;7.03;;
422;SDS011;198;48.752;9.180;2023-08-20T03:28:04;13.20;;;7.40;;
422;SDS011;198;48.752;9.180;2023-08-20T03:30:30;15.73;;;8.10;;
422;SDS011;198;48.752;9.180;2023-08-20T03:32:56;16.23;;;7.50;;
422;SDS011;198;48.752;9.180;2023-08-20T03:35:22;17.47;;;8.20;;
422;SDS011;198;48.752;9.180;2023-08-20T03:37:47;12.50;;;7.13;;
422;SDS011;198;48.752;9.180;2023-08-20T03:40:13;10.70;;;6.70;;
422;SDS011;198;48.752;9.180;2023-08-20T03:42:38;10.77;;;7.03;;
422;SDS011;198;48.752;9.180;2023-08-20T03:45:04;16.17;;;6.90;;
422;SDS011;198;48.752;9.180;2023-08-20T03:47:30;14.93;;;7.73;;
422;SDS011;198;48.752;9.180;2023-08-20T03:49:55;9.83;;;6.97;;
422;SDS011;198;48.752;9.180;2023-08-20T03:52:21;15.53;;;7.97;;
422;SDS011;198;48.752;9.180;2023-08-20T03:54:46;16.03;;;8.20;;
422;SDS011;198;48.752;9.180;2023-08-20T03:57:12;12.17;;;8.63;;
422;SDS011;198;48.752;9.180;2023-08-20T03:59:37;14.97;;;7.50;;
422;SDS011;198;48.752;9.180;2023-08-20T04:02:03;11.47;;;6.90;;
422;SDS011;198;48.752;9.180;2023-08-20T04:04:28;14.03;;;7.90;;
422;SDS011;198;48.752;9.180;2023-08-20T04:06:54;11.47;;;7.57;;
422;SDS011;198;48.752;9.180;2023-08-20T04:09:19;24.30;;;8.40;;
422;SDS011;198;48.752;9.180;2023-08-20T04:11:45;17.43;;;7.73;;
422;SDS011;198;48.752;9.180;2023-08-20T04:14:10;11.63;;;7.27;;
422;SDS011;198;48.752;9.180;2023-08-20T04:16:36;13.30;;;7.43;;
422;SDS011;198;48.752;9.180;2023-08-20T04:19:01;10.53;;;7.90;;
422;SDS011;198;48.752;9.180;2023-08-20T04:21:27;13.07;;;8.37;;
422;SDS011;198;48.752;9.180;2023-08-20T04:23:53;11.00;;;7.40;;
422;SDS011;198;48.752;9.180;2023-08-20T04:26:18;10.80;;;7.63;;
422;SDS011;198;48.752;9.180;2023-08-20T04:28:44;12.40;;;7.40;;
422;SDS011;198;48.752;9.180;2023-08-20T04:31:09;13.57;;;8.13;;
422;SDS011;198;48.752;9.180;2023-08-20T04:33:35;9.97;;;7.27;;
422;SDS011;198;48.752;9.180;2023-08-20T04:36:00;13.70;;;8.30;;
422;SDS011;198;48.752;9.180;2023-08-20T04:38:26;16.23;;;8.80;;
422;SDS011;198;48.752;9.180;2023-08-20T04:40:51;10.80;;;7.53;;
422;SDS011;198;48.752;9.180;2023-08-20T04:43:17;11.13;;;7.60;;
422;SDS011;198;48.752;9.180;2023-08-20T04:45:42;11.03;;;7.50;;
422;SDS011;198;48.752;9.180;2023-08-20T04:48:08;12.50;;;7.37;;
422;SDS011;198;48.752;9.180;2023-08-20T04:50:33;12.87;;;7.93;;
422;SDS011;198;48.752;9.180;2023-08-20T04:52:59;13.30;;;7.80;;
422;SDS011;198;48.752;9.180;2023-08-20T04:55:25;15.67;;;7.50;;
422;SDS011;198;48.752;9.180;2023-08-20T04:57:54;10.43;;;7.00;;
422;SDS011;198;48.752;9.180;2023-08-20T05:00:20;17.93;;;7.37;;
422;SDS011;198;48.752;9.180;2023-08-20T05:02:46;12.60;;;7.20;;
422;SDS011;198;48.752;9.180;2023-08-20T05:05:11;12.10;;;7.30;;
422;SDS011;198;48.752;9.180;2023-08-20T05:07:37;12.10;;;6.90;;
422;SDS011;198;48.752;9.180;2023-08-20T05:10:03;10.13;;;7.00;;
422;SDS011;198;48.752;9.180;2023-08-20T05:12:29;10.03;;;7.70;;
422;SDS011;198;48.752;9.180;2023-08-20T05:14:54;11.57;;;7.57;;
422;SDS011;198;48.752;9.180;2023-08-20T05:17:20;17.73;;;8.67;;
422;SDS011;198;48.752;9.180;2023-08-20T05:19:45;16.20;;;7.93;;
422;SDS011;198;48.752;9.180;2023-08-20T05:22:11;20.40;;;9.30;;
422;SDS011;198;48.752;9.180;2023-08-20T05:24:37;15.00;;;9.97;;
422;SDS011;198;48.752;9.180;2023-08-20T05:27:03;14.23;;;8.30;;
422;SDS011;198;48.752;9.180;2023-08-20T05:29:30;12.87;;;8.50;;
422;SDS011;198;48.752;9.180;2023-08-20T05:31:56;12.40;;;8.10;;
422;SDS011;198;48.752;9.180;2023-08-20T05:34:21;16.03;;;8.10;;
422;SDS011;198;48.752;9.180;2023-08-20T05:36:46;16.03;;;9.00;;
422;SDS011;198;48.752;9.180;2023-08-20T05:39:12;13.20;;;8.27;;
422;SDS011;198;48.752;9.180;2023-08-20T05:41:37;10.07;;;7.60;;
422;SDS011;198;48.752;9.180;2023-08-20T05:44:03;11.50;;;7.60;;
422;SDS011;198;48.752;9.180;2023-08-20T05:46:29;16.33;;;8.40;;
422;SDS011;198;48.752;9.180;2023-08-20T05:48:54;14.40;;;7.40;;
422;SDS011;198;48.752;9.180;2023-08-20T05:51:20;14.93;;;7.57;;
422;SDS011;198;48.752;9.180;2023-08-20T05:53:45;15.27;;;9.00;;
422;SDS011;198;48.752;9.180;2023-08-20T05:56:11;12.87;;;7.50;;
422;SDS011;198;48.752;9.180;2023-08-20T05:58:36;14.30;;;8.03;;
422;SDS011;198;48.752;9.180;2023-08-20T06:01:02;13.80;;;8.70;;
422;SDS011;198;48.752;9.180;2023-08-20T06:03:27;12.33;;;8.67;;
422;SDS011;198;48.752;9.180;2023-08-20T06:05:52;13.13;;;9.17;;
422;SDS011;198;48.752;9.180;2023-08-20T06:08:18;9.13;;;7.40;;
422;SDS011;198;48.752;9.180;2023-08-20T06:10:43;21.90;;;10.50;;
422;SDS011;198;48.752;9.180;2023-08-20T06:13:09;18.23;;;7.57;;
422;SDS011;198;48.752;9.180;2023-08-20T06:15:34;9.30;;;6.83;;
422;SDS011;198;48.752;9.180;2023-08-20T06:18:00;18.00;;;9.67;;
422;SDS011;198;48.752;9.180;2023-08-20T06:20:25;15.97;;;7.93;;
422;SDS011;198;48.752;9.180;2023-08-20T06:22:51;10.40;;;7.13;;
422;SDS011;198;48.752;9.180;2023-08-20T06:25:16;9.57;;;6.53;;
422;SDS011;198;48.752;9.180;2023-08-20T06:27:42;12.73;;;7.30;;
422;SDS011;198;48.752;9.180;2023-08-20T06:30:07;14.67;;;7.57;;
422;SDS011;198;48.752;9.180;2023-08-20T06:32:34;9.30;;;6.43;;
422;SDS011;198;48.752;9.180;2023-08-20T06:35:00;12.80;;;8.53;;
422;SDS011;198;48.752;9.180;2023-08-20T06:37:25;10.70;;;6.93;;
422;SDS011;198;48.752;9.180;2023-08-20T06:39:51;7.83;;;6.00;;
422;SDS011;198;48.752;9.180;2023-08-20T06:42:16;12.93;;;7.53;;
422;SDS011;198;48.752;9.180;2023-08-20T06:44:42;8.93;;;6.30;;
422;SDS011;198;48.752;9.180;2023-08-20T06:47:07;10.90;;;6.87;;
422;SDS011;198;48.752;9.180;2023-08-20T06:49:32;18.93;;;7.33;;
422;SDS011;198;48.752;9.180;2023-08-20T06:51:58;18.40;;;7.33;;
422;SDS011;198;48.752;9.180;2023-08-20T06:54:23;10.93;;;6.70;;
422;SDS011;198;48.752;9.180;2023-08-20T06:56:49;10.37;;;6.93;;
422;SDS011;198;48.752;9.180;2023-08-20T06:59:15;14.77;;;8.20;;
422;SDS011;198;48.752;9.180;2023-08-20T07:01:41;10.40;;;6.87;;
422;SDS011;198;48.752;9.180;2023-08-20T07:04:07;10.17;;;6.40;;
422;SDS011;198;48.752;9.180;2023-08-20T07:06:32;19.73;;;10.60;;
422;SDS011;198;48.752;9.180;2023-08-20T07:08:58;8.00;;;6.10;;
422;SDS011;198;48.752;9.180;2023-08-20T07:11:23;12.83;;;6.93;;
422;SDS011;198;48.752;9.180;2023-08-20T07:13:49;13.90;;;6.70;;
422;SDS011;198;48.752;9.180;2023-08-20T07:16:14;10.17;;;7.07;;
422;SDS011;198;48.752;9.180;2023-08-20T07:18:40;14.33;;;8.50;;
422;SDS011;198;48.752;9.180;2023-08-20T07:21:05;17.70;;;8.03;;
422;SDS011;198;48.752;9.180;2023-08-20T07:23:32;12.53;;;7.30;;
422;SDS011;198;48.752;9.180;2023-08-20T07:26:05;12.43;;;7.80;;
422;SDS011;198;48.752;9.180;2023-08-20T07:28:31;9.37;;;7.40;;
422;SDS011;198;48.752;9.180;2023-08-20T07:31:15;8.93;;;7.10;;
422;SDS011;198;48.752;9.180;2023-08-20T07:33:41;8.50;;;6.50;;
422;SDS011;198;48.752;9.180;2023-08-20T07:36:10;16.90;;;6.20;;
422;SDS011;198;48.752;9.180;2023-08-20T07:38:35;13.80;;;7.53;;
422;SDS011;198;48.752;9.180;2023-08-20T07:41:05;10.73;;;6.83;;
422;SDS011;198;48.752;9.180;2023-08-20T07:43:31;21.97;;;7.87;;
422;SDS011;198;48.752;9.180;2023-08-20T07:45:57;10.00;;;7.17;;
422;SDS011;198;48.752;9.180;2023-08-20T07:48:22;15.27;;;8.20;;
422;SDS011;198;48.752;9.180;2023-08-20T07:50:48;14.83;;;7.13;;
422;SDS011;198;48.752;9.180;2023-08-20T07:53:13;16.03;;;8.23;;
422;SDS011;198;48.752;9.180;2023-08-20T07:55:39;11.27;;;7.00;;
422;SDS011;198;48.752;9.180;2023-08-20T07:58:04;13.60;;;7.20;;
422;SDS011;198;48.752;9.180;2023-08-20T08:00:30;11.87;;;7.37;;
422;SDS011;198;48.752;9.180;2023-08-20T08:02:55;19.33;;;8.83;;
422;SDS011;198;48.752;9.180;2023-08-20T08:05:21;8.83;;;6.33;;
422;SDS011;198;48.752;9.180;2023-08-20T08:07:46;16.30;;;7.40;;
422;SDS011;198;48.752;9.180;2023-08-20T08:10:12;11.93;;;6.60;;
422;SDS011;198;48.752;9.180;2023-08-20T08:12:37;12.20;;;6.27;;
422;SDS011;198;48.752;9.180;2023-08-20T08:15:03;12.50;;;7.77;;
422;SDS011;198;48.752;9.180;2023-08-20T08:17:29;16.80;;;8.57;;
422;SDS011;198;48.752;9.180;2023-08-20T08:19:54;13.83;;;7.33;;
422;SDS011;198;48.752;9.180;2023-08-20T08:22:20;16.23;;;6.63;;
422;SDS011;198;48.752;9.180;2023-08-20T08:24:46;18.80;;;8.13;;
422;SDS011;198;48.752;9.180;2023-08-20T08:27:11;14.40;;;7.37;;
422;SDS011;198;48.752;9.180;2023-08-20T08:29:37;11.23;;;7.10;;
422;SDS011;198;48.752;9.180;2023-08-20T08:32:02;9.50;;;7.80;;
422;SDS011;198;48.752;9.180;2023-08-20T08:34:28;13.03;;;7.80;;
422;SDS011;198;48.752;9.180;2023-08-20T08:36:53;17.43;;;8.43;;
422;SDS011;198;48.752;9.180;2023-08-20T08:39:19;12.47;;;7.97;;
422;SDS011;198;48.752;9.180;2023-08-20T08:41:44;12.63;;;6.97;;
422;SDS011;198;48.752;9.180;2023-08-20T08:44:15;11.57;;;8.73;;
422;SDS011;198;48.752;9.180;2023-08-20T08:46:41;11.00;;;7.57;;
422;SDS011;198;48.752;9.180;2023-08-20T08:49:07;14.43;;;8.17;;
422;SDS011;198;48.752;9.180;2023-08-20T08:51:33;12.10;;;7.43;;
422;SDS011;198;48.752;9.180;2023-08-20T08:54:01;17.80;;;9.33;;
422;SDS011;198;48.752;9.180;2023-08-20T08:56:27;9.50;;;7.10;;
422;SDS011;198;48.752;9.180;2023-08-20T08:58:53;16.70;;;8.10;;
422;SDS011;198;48.752;9.180;2023-08-20T09:01:19;9.60;;;6.17;;
422;SDS011;198;48.752;9.180;2023-08-20T09:03:45;9.23;;;6.60;;
422;SDS011;198;48.752;9.180;2023-08-20T09:06:12;10.30;;;7.47;;
422;SDS011;198;48.752;9.180;2023-08-20T09:08:37;16.63;;;6.43;;
422;SDS011;198;48.752;9.180;2023-08-20T09:11:03;15.40;;;7.60;;
422;SDS011;198;48.752;9.180;2023-08-20T09:13:32;12.47;;;8.07;;
422;SDS011;198;48.752;9.180;2023-08-20T09:15:59;16.67;;;6.00;;
422;SDS011;198;48.752;9.180;2023-08-20T09:18:29;8.67;;;7.00;;
422;SDS011;198;48.752;9.180;2023-08-20T09:20:54;10.80;;;7.50;;
422;SDS011;198;48.752;9.180;2023-08-20T09:23:22;10.77;;;7.13;;
422;SDS011;198;48.752;9.180;2023-08-20T09:25:47;13.87;;;8.00;;
422;SDS011;198;48.752;9.180;2023-08-20T09:28:13;16.00;;;7.43;;
422;SDS011;198;48.752;9.180;2023-08-20T09:30:39;12.63;;;7.17;;
422;SDS011;198;48.752;9.180;2023-08-20T09:33:12;10.67;;;6.73;;
422;SDS011;198;48.752;9.180;2023-08-20T09:35:50;13.43;;;6.47;;
422;SDS011;198;48.752;9.180;2023-08-20T09:38:18;11.03;;;6.30;;
422;SDS011;198;48.752;9.180;2023-08-20T09:40:48;14.30;;;6.30;;
422;SDS011;198;48.752;9.180;2023-08-20T09:43:18;15.60;;;8.20;;
422;SDS011;198;48.752;9.180;2023-08-20T09:45:46;15.07;;;7.57;;
422;SDS011;198;48.752;9.180;2023-08-20T09:48:13;17.50;;;6.37;;
422;SDS011;198;48.752;9.180;2023-08-20T09:50:47;8.93;;;6.17;;
422;SDS011;198;48.752;9.180;2023-08-20T09:53:25;13.23;;;5.83;;
422;SDS011;198;48.752;9.180;2023-08-20T09:55:55;12.50;;;5.97;;
422;SDS011;198;48.752;9.180;2023-08-20T09:58:26;9.40;;;5.87;;
422;SDS011;198;48.752;9.180;2023-08-20T10:00:52;11.73;;;5.90;;
422;SDS011;198;48.752;9.180;2023-08-20T10:03:18;6.73;;;5.33;;
422;SDS011;198;48.752;9.180;2023-08-20T10:05:46;8.13;;;5.03;;
422;SDS011;198;48.752;9.180;2023-08-20T10:08:14;10.63;;;4.80;;
422;SDS011;198;48.752;9.180;2023-08-20T10:10:40;8.40;;;5.00;;
422;SDS011;198;48.752;9.180;2023-08-20T10:13:06;10.20;;;4.70;;
422;SDS011;198;48.752;9.180;2023-08-20T10:15:32;4.72;;;4.18;;
422;SDS011;198;48.752;9.180;2023-08-20T10:18:01;4.38;;;3.28;;
422;SDS011;198;48.752;9.180;2023-08-20T10:20:28;6.22;;;3.42;;
422;SDS011;198;48.752;9.180;2023-08-20T10:22:57;3.63;;;3.10;;
422;SDS011;198;48.752;9.180;2023-08-20T10:25:25;5.57;;;3.60;;
422;SDS011;198;48.752;9.180;2023-08-20T10:27:52;3.72;;;3.53;;
422;SDS011;198;48.752;9.180;2023-08-20T10:30:19;5.75;;;4.82;;
422;SDS011;198;48.752;9.180;2023-08-20T10:32:51;3.63;;;3.42;;
422;SDS011;198;48.752;9.180;2023-08-20T10:35:18;4.68;;;2.88;;
422;SDS011;198;48.752;9.180;2023-08-20T10:40:46;5.07;;;3.95;;
422;SDS011;198;48.752;9.180;2023-08-20T10:48:46;3.30;;;2.97;;
422;SDS011;198;48.752;9.180;2023-08-20T10:51:32;3.78;;;3.63;;
422;SDS011;198;48.752;9.180;2023-08-20T10:54:06;7.50;;;3.03;;
422;SDS011;198;48.752;9.180;2023-08-20T10:56:45;6.22;;;3.20;;
422;SDS011;198;48.752;9.180;2023-08-20T10:59:13;3.53;;;3.15;;
422;SDS011;198;48.752;9.180;2023-08-20T11:01:44;5.55;;;4.38;;
422;SDS011;198;48.752;9.180;2023-08-20T11:04:11;5.57;;;4.05;;
422;SDS011;198;48.752;9.180;2023-08-20T11:06:37;6.55;;;3.70;;
422;SDS011;198;48.752;9.180;2023-08-20T11:09:04;6.68;;;3.20;;
422;SDS011;198;48.752;9.180;2023-08-20T11:11:33;5.40;;;3.40;;
422;SDS011;198;48.752;9.180;2023-08-20T11:14:05;8.93;;;3.42;;
422;SDS011;198;48.752;9.180;2023-08-20T11:16:34;2.80;;;2.60;;
422;SDS011;198;48.752;9.180;2023-08-20T11:19:01;4.82;;;3.67;;
422;SDS011;198;48.752;9.180;2023-08-20T11:21:30;5.57;;;3.33;;
422;SDS011;198;48.752;9.180;2023-08-20T11:23:56;2.88;;;2.75;;
422;SDS011;198;48.752;9.180;2023-08-20T11:26:22;2.50;;;2.33;;
422;SDS011;198;48.752;9.180;2023-08-20T11:28:48;5.00;;;3.50;;
422;SDS011;198;48.752;9.180;2023-08-20T11:31:13;7.47;;;4.72;;
422;SDS011;198;48.752;9.180;2023-08-20T11:33:39;6.38;;;4.28;;
422;SDS011;198;48.752;9.180;2023-08-20T11:36:05;3.95;;;3.28;;
422;SDS011;198;48.752;9.180;2023-08-20T11:38:31;3.33;;;3.00;;
422;SDS011;198;48.752;9.180;2023-08-20T11:41:00;4.25;;;3.20;;
422;SDS011;198;48.752;9.180;2023-08-20T11:43:29;4.47;;;3.63;;
422;SDS011;198;48.752;9.180;2023-08-20T11:45:55;3.45;;;2.83;;
422;SDS011;198;48.752;9.180;2023-08-20T11:48:20;2.97;;;2.78;;
422;SDS011;198;48.752;9.180;2023-08-20T11:50:47;5.70;;;3.70;;
422;SDS011;198;48.752;9.180;2023-08-20T11:53:13;4.63;;;3.05;;
422;SDS011;198;48.752;9.180;2023-08-20T11:55:41;4.55;;;2.92;;
422;SDS011;198;48.752;9.180;2023-08-20T11:58:13;7.93;;;3.50;;
422;SDS011;198;48.752;9.180;2023-08-20T12:00:39;5.60;;;3.15;;
422;SDS011;198;48.752;9.180;2023-08-20T12:03:05;3.25;;;2.75;;
422;SDS011;198;48.752;9.180;2023-08-20T12:05:32;3.25;;;3.05;;
422;SDS011;198;48.752;9.180;2023-08-20T12:07:59;5.57;;;3.97;;
422;SDS011;198;48.752;9.180;2023-08-20T12:10:26;3.65;;;2.65;;
422;SDS011;198;48.752;9.180;2023-08-20T12:12:53;11.63;;;3.83;;
422;SDS011;198;48.752;9.180;2023-08-20T12:15:20;3.40;;;2.97;;
422;SDS011;198;48.752;9.180;2023-08-20T12:17:56;4.13;;;3.10;;
422;SDS011;198;48.752;9.180;2023-08-20T12:20:22;3.80;;;2.53;;
422;SDS011;198;48.752;9.180;2023-08-20T12:22:48;2.80;;;2.63;;
422;SDS011;198;48.752;9.180;2023-08-20T12:25:13;6.82;;;3.45;;
422;SDS011;198;48.752;9.180;2023-08-20T12:27:39;5.93;;;3.00;;
422;SDS011;198;48.752;9.180;2023-08-20T12:30:06;3.47;;;2.47;;
422;SDS011;198;48.752;9.180;2023-08-20T12:32:32;5.57;;;2.92;;
422;SDS011;198;48.752;9.180;2023-08-20T12:34:57;3.20;;;2.83;;
422;SDS011;198;48.752;9.180;2023-08-20T12:37:23;3.85;;;2.90;;
422;SDS011;198;48.752;9.180;2023-08-20T12:39:48;5.13;;;2.58;;
422;SDS011;198;48.752;9.180;2023-08-20T12:42:14;4.68;;;2.88;;
422;SDS011;198;48.752;9.180;2023-08-20T12:44:39;10.63;;;3.17;;
422;SDS011;198;48.752;9.180;2023-08-20T12:47:05;6.60;;;3.15;;
422;SDS011;198;48.752;9.180;2023-08-20T12:49:30;9.93;;;3.35;;
422;SDS011;198;48.752;9.180;2023-08-20T12:51:56;3.58;;;2.50;;
422;SDS011;198;48.752;9.180;2023-08-20T12:54:21;6.93;;;2.88;;
422;SDS011;198;48.752;9.180;2023-08-20T12:56:47;5.53;;;3.08;;
422;SDS011;198;48.752;9.180;2023-08-20T12:59:12;9.30;;;4.40;;
422;SDS011;198;48.752;9.180;2023-08-20T13:01:38;5.82;;;3.45;;
422;SDS011;198;48.752;9.180;2023-08-20T13:04:03;3.70;;;3.30;;
422;SDS011;198;48.752;9.180;2023-08-20T13:06:29;4.90;;;3.17;;
422;SDS011;198;48.752;9.180;2023-08-20T13:08:55;6.13;;;3.70;;
422;SDS011;198;48.752;9.180;2023-08-20T13:11:21;4.68;;;3.58;;
422;SDS011;198;48.752;9.180;2023-08-20T13:13:50;4.27;;;4.00;;
422;SDS011;198;48.752;9.180;2023-08-20T13:16:18;5.83;;;3.97;;
422;SDS011;198;48.752;9.180;2023-08-20T13:18:44;6.10;;;4.13;;
422;SDS011;198;48.752;9.180;2023-08-20T13:21:10;4.40;;;3.80;;
422;SDS011;198;48.752;9.180;2023-08-20T13:23:36;9.30;;;4.90;;
422;SDS011;198;48.752;9.180;2023-08-20T13:26:01;5.50;;;3.90;;
422;SDS011;198;48.752;9.180;2023-08-20T13:28:27;4.13;;;3.40;;
422;SDS011;198;48.752;9.180;2023-08-20T13:30:53;6.70;;;4.67;;
422;SDS011;198;48.752;9.180;2023-08-20T13:33:18;6.10;;;4.40;;
422;SDS011;198;48.752;9.180;2023-08-20T13:35:44;6.13;;;4.40;;
422;SDS011;198;48.752;9.180;2023-08-20T13:38:09;7.37;;;4.33;;
422;SDS011;198;48.752;9.180;2023-08-20T13:40:35;11.20;;;4.70;;
422;SDS011;198;48.752;9.180;2023-08-20T13:43:00;5.57;;;4.67;;
422;SDS011;198;48.752;9.180;2023-08-20T13:45:26;7.47;;;4.40;;
422;SDS011;198;48.752;9.180;2023-08-20T13:47:51;7.07;;;4.20;;
422;SDS011;198;48.752;9.180;2023-08-20T13:50:17;5.30;;;3.93;;
422;SDS011;198;48.752;9.180;2023-08-20T13:52:42;10.87;;;4.73;;
422;SDS011;198;48.752;9.180;2023-08-20T13:55:08;7.63;;;4.40;;
422;SDS011;198;48.752;9.180;2023-08-20T13:57:34;4.47;;;3.70;;
422;SDS011;198;48.752;9.180;2023-08-20T13:59:59;6.97;;;4.60;;
422;SDS011;198;48.752;9.180;2023-08-20T14:02:24;4.97;;;3.87;;
422;SDS011;198;48.752;9.180;2023-08-20T14:04:50;5.10;;;4.33;;
422;SDS011;198;48.752;9.180;2023-08-20T14:07:15;8.83;;;4.90;;
422;SDS011;198;48.752;9.180;2023-08-20T14:09:41;4.33;;;4.03;;
422;SDS011;198;48.752;9.180;2023-08-20T14:12:07;7.03;;;4.10;;
422;SDS011;198;48.752;9.180;2023-08-20T14:14:33;6.33;;;4.60;;
422;SDS011;198;48.752;9.180;2023-08-20T14:16:59;8.53;;;4.63;;
422;SDS011;198;48.752;9.180;2023-08-20T14:19:24;6.00;;;3.77;;
422;SDS011;198;48.752;9.180;2023-08-20T14:21:50;8.13;;;4.03;;
422;SDS011;198;48.752;9.180;2023-08-20T14:24:16;6.00;;;4.67;;
422;SDS011;198;48.752;9.180;2023-08-20T14:26:41;5.83;;;4.23;;
422;SDS011;198;48.752;9.180;2023-08-20T14:29:07;9.37;;;4.57;;
422;SDS011;198;48.752;9.180;2023-08-20T14:31:32;7.90;;;4.50;;
422;SDS011;198;48.752;9.180;2023-08-20T14:33:58;6.83;;;4.47;;
422;SDS011;198;48.752;9.180;2023-08-20T14:36:23;10.73;;;3.93;;
422;SDS011;198;48.752;9.180;2023-08-20T14:38:49;6.30;;;3.93;;
422;SDS011;198;48.752;9.180;2023-08-20T14:41:14;5.23;;;4.33;;
422;SDS011;198;48.752;9.180;2023-08-20T14:43:39;8.00;;;3.90;;
422;SDS011;198;48.752;9.180;2023-08-20T14:46:06;6.67;;;4.53;;
422;SDS011;198;48.752;9.180;2023-08-20T14:48:32;8.03;;;3.87;;
422;SDS011;198;48.752;9.180;2023-08-20T14:51:00;6.60;;;3.83;;
422;SDS011;198;48.752;9.180;2023-08-20T14:53:25;4.83;;;3.67;;
422;SDS011;198;48.752;9.180;2023-08-20T14:55:51;7.30;;;4.63;;
422;SDS011;198;48.752;9.180;2023-08-20T14:58:16;5.27;;;4.83;;
422;SDS011;198;48.752;9.180;2023-08-20T15:00:42;6.00;;;4.37;;
422;SDS011;198;48.752;9.180;2023-08-20T15:03:07;4.10;;;3.87;;
422;SDS011;198;48.752;9.180;2023-08-20T15:05:33;4.50;;;3.80;;
422;SDS011;198;48.752;9.180;2023-08-20T15:07:58;5.23;;;3.80;;
422;SDS011;198;48.752;9.180;2023-08-20T15:10:24;4.73;;;3.30;;
422;SDS011;198;48.752;9.180;2023-08-20T15:12:51;11.13;;;4.20;;
422;SDS011;198;48.752;9.180;2023-08-20T15:15:16;8.47;;;4.70;;
422;SDS011;198;48.752;9.180;2023-08-20T15:17:42;4.80;;;3.97;;
422;SDS011;198;48.752;9.180;2023-08-20T15:20:08;5.83;;;4.20;;
422;SDS011;198;48.752;9.180;2023-08-20T15:22:35;5.90;;;4.27;;
422;SDS011;198;48.752;9.180;2023-08-20T15:25:01;7.33;;;4.30;;
422;SDS011;198;48.752;9.180;2023-08-20T15:27:28;4.87;;;3.87;;
422;SDS011;198;48.752;9.180;2023-08-20T15:29:54;6.40;;;3.73;;
422;SDS011;198;48.752;9.180;2023-08-20T15:32:19;4.90;;;3.30;;
422;SDS011;198;48.752;9.180;2023-08-20T15:34:46;6.50;;;3.90;;
422;SDS011;198;48.752;9.180;2023-08-20T15:37:12;7.83;;;3.27;;
422;SDS011;198;48.752;9.180;2023-08-20T15:39:38;6.60;;;3.87;;
422;SDS011;198;48.752;9.180;2023-08-20T15:42:04;8.40;;;3.90;;
422;SDS011;198;48.752;9.180;2023-08-20T15:44:29;7.30;;;3.80;;
422;SDS011;198;48.752;9.180;2023-08-20T15:46:55;9.93;;;3.60;;